Terminal Aerodrome Forecast
Issued by NWS Austin/San Antonio, TX

Home | Current Version | Previous Version | Text Only | Print | Product List | Glossary On
Versions: 1 2 3 4 5 6 7 8 9 10 11 12 13 14 15 16 17 18 19 20 21 22 23 24 25 26 27 28 29 30 31 32
000
FTUS44 KEWX 181740
TAFAUS
TAF
KAUS 181740Z 1818/1924 13004KT 1SM -RADZ OVC003
     FM190300 20002KT 1/4SM -RA FG OVC004 PROB30 1912/1918 1/4SM
      -TSRA BKN001CB=

USA.gov is the U.S. government's official web portal to all federal, state and local government web resources and services.